createdAt,value
2022-12-29T00:00:55.303Z,999.56
2022-12-29T00:01:55.460Z,999.49
2022-12-29T00:02:55.837Z,999.44
2022-12-29T00:03:56.045Z,999.44
2022-12-29T00:04:56.342Z,999.43
2022-12-29T00:05:56.604Z,999.42
2022-12-29T00:06:56.857Z,999.40
2022-12-29T00:07:57.155Z,999.36
2022-12-29T00:08:57.444Z,999.37
2022-12-29T00:09:57.760Z,999.28
2022-12-29T00:10:58.071Z,999.33
2022-12-29T00:11:58.315Z,999.32
2022-12-29T00:12:58.612Z,999.30
2022-12-29T00:13:58.925Z,999.33
2022-12-29T00:14:59.196Z,999.27
2022-12-29T00:15:59.558Z,999.28
2022-12-29T00:16:59.802Z,999.34
2022-12-29T00:18:00.045Z,999.31
2022-12-29T00:19:00.369Z,999.33
2022-12-29T00:20:00.609Z,999.37
2022-12-29T00:21:00.902Z,999.32
2022-12-29T00:22:01.245Z,999.32
2022-12-29T00:23:01.514Z,999.30
2022-12-29T00:24:01.777Z,999.25
2022-12-29T00:25:02.112Z,999.28
2022-12-29T00:26:02.396Z,999.34
2022-12-29T00:27:02.662Z,999.31
2022-12-29T00:28:07.309Z,999.31
2022-12-29T00:29:04.167Z,999.30
2022-12-29T00:30:03.481Z,999.35
2022-12-29T00:31:03.903Z,999.30
2022-12-29T00:32:04.055Z,999.24
2022-12-29T00:33:04.353Z,999.31
2022-12-29T00:34:04.614Z,999.24
2022-12-29T00:35:04.853Z,999.23
2022-12-29T00:36:05.166Z,999.21
2022-12-29T00:37:05.448Z,999.14
2022-12-29T00:38:05.701Z,999.15
2022-12-29T00:39:06.004Z,999.21
2022-12-29T00:40:06.294Z,999.16
2022-12-29T00:41:06.537Z,999.13
2022-12-29T00:42:06.766Z,999.11
2022-12-29T00:43:07.079Z,999.13
2022-12-29T00:44:07.393Z,999.13
2022-12-29T00:45:07.793Z,999.11
2022-12-29T00:46:08.030Z,999.04
2022-12-29T00:47:08.375Z,998.91
2022-12-29T00:48:08.505Z,998.91
2022-12-29T00:49:08.775Z,998.90
2022-12-29T00:50:09.092Z,998.95
2022-12-29T00:51:09.357Z,999.00
2022-12-29T00:52:09.650Z,999.02
2022-12-29T00:53:09.947Z,999.05
2022-12-29T00:54:10.204Z,999.01
2022-12-29T00:55:10.532Z,999.07
2022-12-29T00:56:10.896Z,999.06
2022-12-29T00:57:11.016Z,999.07
2022-12-29T00:58:11.262Z,999.11
2022-12-29T00:59:11.569Z,999.09
2022-12-29T01:00:11.866Z,999.05
2022-12-29T01:01:12.165Z,999.05
2022-12-29T01:02:12.567Z,999.09
2022-12-29T01:03:12.801Z,999.07
2022-12-29T01:04:12.979Z,999.05
2022-12-29T01:05:13.278Z,999.08
2022-12-29T01:06:13.575Z,999.05
2022-12-29T01:07:13.915Z,999.07
2022-12-29T01:08:14.179Z,999.05
2022-12-29T01:09:14.478Z,999.05
2022-12-29T01:10:14.729Z,999.11
2022-12-29T01:11:15.067Z,999.04
2022-12-29T01:12:15.362Z,999.06
2022-12-29T01:13:15.646Z,999.03
2022-12-29T01:14:15.873Z,998.98
2022-12-29T01:15:16.157Z,998.96
2022-12-29T01:16:16.459Z,999.00
2022-12-29T01:17:16.677Z,999.00
2022-12-29T01:18:16.912Z,998.90
2022-12-29T01:19:17.239Z,998.96
2022-12-29T01:20:17.439Z,999.02
2022-12-29T01:21:17.709Z,999.05
2022-12-29T01:22:17.991Z,999.00
2022-12-29T01:23:18.244Z,998.99
2022-12-29T01:24:18.531Z,999.02
2022-12-29T01:25:18.830Z,999.00
2022-12-29T01:26:19.167Z,998.98
2022-12-29T01:27:19.426Z,998.95
2022-12-29T01:28:25.633Z,998.98
2022-12-29T01:29:21.048Z,998.99
2022-12-29T01:30:20.251Z,998.97
2022-12-29T01:31:20.625Z,999.02
2022-12-29T01:32:20.861Z,998.97
2022-12-29T01:33:21.189Z,998.99
2022-12-29T01:34:21.452Z,998.98
2022-12-29T01:35:21.737Z,999.02
2022-12-29T01:36:22.008Z,999.07
2022-12-29T01:37:22.284Z,999.03
2022-12-29T01:38:22.592Z,998.98
2022-12-29T01:39:22.831Z,999.03
2022-12-29T01:40:23.167Z,999.00
2022-12-29T01:41:23.458Z,999.05
2022-12-29T01:42:23.729Z,999.04
2022-12-29T01:43:24.013Z,999.08
2022-12-29T01:44:24.316Z,999.06
2022-12-29T01:45:24.561Z,999.07
2022-12-29T01:46:24.922Z,999.08
2022-12-29T01:47:25.134Z,999.02
2022-12-29T01:48:25.376Z,999.09
2022-12-29T01:49:25.677Z,999.05
2022-12-29T01:50:25.974Z,998.98
2022-12-29T01:51:26.324Z,999.05
2022-12-29T01:52:26.599Z,999.03
2022-12-29T01:53:26.877Z,999.08
2022-12-29T01:54:27.164Z,999.01
2022-12-29T01:55:27.462Z,999.04
2022-12-29T01:56:27.735Z,998.98
2022-12-29T01:57:27.999Z,999.03
2022-12-29T01:58:28.313Z,999.00
2022-12-29T01:59:28.563Z,999.02
2022-12-29T02:00:28.885Z,999.02
2022-12-29T02:01:29.278Z,998.97
2022-12-29T02:02:33.212Z,998.85
2022-12-29T02:03:29.878Z,998.74
2022-12-29T02:04:30.090Z,998.78
2022-12-29T02:05:30.351Z,998.78
2022-12-29T02:06:30.667Z,998.86
2022-12-29T02:07:30.984Z,998.83
2022-12-29T02:08:31.380Z,998.80
2022-12-29T02:09:31.604Z,998.73
2022-12-29T02:10:31.844Z,998.66
2022-12-29T02:11:32.179Z,998.71
2022-12-29T02:12:32.460Z,998.61
2022-12-29T02:13:32.780Z,998.60
2022-12-29T02:14:33.059Z,998.65
2022-12-29T02:15:33.325Z,998.60
2022-12-29T02:16:33.703Z,998.61
2022-12-29T02:17:33.863Z,998.64
2022-12-29T02:18:34.199Z,998.58
2022-12-29T02:19:34.461Z,998.61
2022-12-29T02:20:34.744Z,998.57
2022-12-29T02:21:35.102Z,998.58
2022-12-29T02:22:35.372Z,998.56
2022-12-29T02:23:35.624Z,998.54
2022-12-29T02:24:35.967Z,998.59
2022-12-29T02:25:36.228Z,998.60
2022-12-29T02:26:36.591Z,998.60
2022-12-29T02:27:36.850Z,998.60
2022-12-29T02:28:37.128Z,998.52
2022-12-29T02:29:37.376Z,998.58
2022-12-29T02:30:37.712Z,998.53
2022-12-29T02:31:38.003Z,998.56
2022-12-29T02:32:38.283Z,998.57
2022-12-29T02:33:38.553Z,998.52
2022-12-29T02:34:38.991Z,998.52
2022-12-29T02:35:39.143Z,998.52
2022-12-29T02:36:39.441Z,998.50
2022-12-29T02:37:39.874Z,998.51
2022-12-29T02:38:40.081Z,998.55
2022-12-29T02:39:40.341Z,998.54
2022-12-29T02:40:40.628Z,998.49
2022-12-29T02:41:40.885Z,998.51
2022-12-29T02:42:41.245Z,998.48
2022-12-29T02:43:41.550Z,998.43
2022-12-29T02:44:41.811Z,998.44
2022-12-29T02:45:42.144Z,998.43
2022-12-29T02:46:42.413Z,998.47
2022-12-29T02:47:42.708Z,998.44
2022-12-29T02:48:43.160Z,998.41
2022-12-29T02:49:43.283Z,998.43
2022-12-29T02:50:43.570Z,998.44
2022-12-29T02:51:44.005Z,998.42
2022-12-29T02:52:44.128Z,998.38
2022-12-29T02:53:44.450Z,998.38
2022-12-29T02:54:44.735Z,998.43
2022-12-29T02:55:45.022Z,998.35
2022-12-29T02:56:45.332Z,998.42
2022-12-29T02:57:45.565Z,998.40
2022-12-29T02:58:45.909Z,998.36
2022-12-29T03:02:07.708Z,998.40
2022-12-29T03:03:07.921Z,998.29
2022-12-29T03:04:08.214Z,998.33
2022-12-29T03:05:08.477Z,998.32
2022-12-29T03:06:08.747Z,998.35
2022-12-29T03:07:09.085Z,998.36
2022-12-29T03:08:09.365Z,998.34
2022-12-29T03:09:18.973Z,998.22
2022-12-29T03:10:10.906Z,998.26
2022-12-29T03:11:10.253Z,998.29
2022-12-29T03:12:10.565Z,998.23
2022-12-29T03:13:10.827Z,998.23
2022-12-29T03:14:11.093Z,998.22
2022-12-29T03:15:11.378Z,998.15
2022-12-29T03:16:11.673Z,998.11
2022-12-29T03:17:12.027Z,998.05
2022-12-29T03:18:12.323Z,998.12
2022-12-29T03:19:12.552Z,998.06
2022-12-29T03:20:12.862Z,998.13
2022-12-29T03:21:13.160Z,998.07
2022-12-29T03:22:13.514Z,998.06
2022-12-29T03:23:13.803Z,998.02
2022-12-29T03:24:14.090Z,997.99
2022-12-29T03:25:14.361Z,997.98
2022-12-29T03:26:14.661Z,998.02
2022-12-29T03:27:14.937Z,998.01
2022-12-29T03:28:15.197Z,998.04
2022-12-29T03:29:15.506Z,998.02
2022-12-29T03:30:15.829Z,997.98
2022-12-29T03:31:16.105Z,998.07
2022-12-29T03:32:16.444Z,998.07
2022-12-29T03:33:16.658Z,998.08
2022-12-29T03:34:16.942Z,998.03
2022-12-29T03:35:17.298Z,997.92
2022-12-29T03:36:17.586Z,997.92
2022-12-29T03:37:17.845Z,997.93
2022-12-29T03:38:18.403Z,997.92
2022-12-29T03:39:18.390Z,997.83
2022-12-29T03:40:18.666Z,997.82
2022-12-29T03:41:18.948Z,997.85
2022-12-29T03:42:19.296Z,997.84
2022-12-29T03:43:19.610Z,997.84
2022-12-29T03:44:19.882Z,997.85
2022-12-29T03:45:20.133Z,997.94
2022-12-29T03:46:20.512Z,997.90
2022-12-29T03:47:20.706Z,997.91
2022-12-29T03:48:20.988Z,997.94
2022-12-29T03:49:21.254Z,997.92
2022-12-29T03:50:21.512Z,997.95
2022-12-29T03:51:21.803Z,997.88
2022-12-29T03:52:22.107Z,997.84
2022-12-29T03:53:22.403Z,997.85
2022-12-29T03:54:22.701Z,997.85
2022-12-29T03:55:22.968Z,997.76
2022-12-29T03:56:23.256Z,997.75
2022-12-29T03:57:23.564Z,997.84
2022-12-29T03:58:23.852Z,997.79
2022-12-29T03:59:24.150Z,997.70
2022-12-29T04:00:24.423Z,997.76
2022-12-29T04:01:24.842Z,997.74
2022-12-29T04:02:25.377Z,997.75
2022-12-29T04:03:25.308Z,997.73
2022-12-29T04:04:25.604Z,997.60
2022-12-29T04:05:25.829Z,997.61
2022-12-29T04:06:26.124Z,997.60
2022-12-29T04:07:26.460Z,997.60
2022-12-29T04:08:26.723Z,997.60
2022-12-29T04:09:26.956Z,997.65
2022-12-29T04:10:27.246Z,997.63
2022-12-29T04:11:32.862Z,997.66
2022-12-29T04:12:28.840Z,997.63
2022-12-29T04:13:28.127Z,997.64
2022-12-29T04:14:28.436Z,997.60
2022-12-29T04:15:28.727Z,997.63
2022-12-29T04:16:29.001Z,997.64
2022-12-29T04:17:29.259Z,997.67
2022-12-29T04:18:29.518Z,997.60
2022-12-29T04:19:29.801Z,997.58
2022-12-29T04:20:30.123Z,997.66
2022-12-29T04:21:30.371Z,997.63
2022-12-29T04:22:30.706Z,997.55
2022-12-29T04:23:30.967Z,997.51
2022-12-29T04:24:31.287Z,997.51
2022-12-29T04:25:31.547Z,997.53
2022-12-29T04:26:31.852Z,997.57
2022-12-29T04:27:32.130Z,997.45
2022-12-29T04:28:32.391Z,997.51
2022-12-29T04:29:32.720Z,997.44
2022-12-29T04:30:33.051Z,997.30
2022-12-29T04:31:33.377Z,997.32
2022-12-29T04:32:33.624Z,997.29
2022-12-29T04:33:33.928Z,997.23
2022-12-29T04:34:34.158Z,997.22
2022-12-29T04:35:34.479Z,997.21
2022-12-29T04:36:34.784Z,997.19
2022-12-29T04:37:35.030Z,997.02
2022-12-29T04:38:35.315Z,997.11
2022-12-29T04:39:35.657Z,997.05
2022-12-29T04:40:35.940Z,997.05
2022-12-29T04:41:36.172Z,997.11
2022-12-29T04:42:36.518Z,997.19
2022-12-29T04:43:36.771Z,997.10
2022-12-29T04:44:43.002Z,997.15
2022-12-29T04:45:38.379Z,997.23
2022-12-29T04:46:37.647Z,997.22
2022-12-29T04:47:37.930Z,997.31
2022-12-29T04:48:38.201Z,997.33
2022-12-29T04:49:38.455Z,997.33
2022-12-29T04:50:38.773Z,997.38
2022-12-29T04:51:39.109Z,997.38
2022-12-29T04:52:39.373Z,997.36
2022-12-29T04:53:39.650Z,997.34
2022-12-29T04:54:39.911Z,997.39
2022-12-29T04:55:40.234Z,997.51
2022-12-29T04:56:40.608Z,997.51
2022-12-29T04:57:40.849Z,997.54
2022-12-29T04:58:41.125Z,997.52
2022-12-29T04:59:41.363Z,997.56
2022-12-29T05:00:41.687Z,997.62
2022-12-29T05:01:42.066Z,997.59
2022-12-29T05:02:42.422Z,997.63
2022-12-29T05:03:42.524Z,997.68
2022-12-29T05:04:42.748Z,997.57
2022-12-29T05:05:43.011Z,997.66
2022-12-29T05:06:43.254Z,997.58
2022-12-29T05:07:43.574Z,997.61
2022-12-29T05:08:43.876Z,997.53
2022-12-29T05:09:44.149Z,997.55
2022-12-29T05:10:44.403Z,997.59
2022-12-29T05:11:44.683Z,997.53
2022-12-29T05:12:44.961Z,997.56
2022-12-29T05:13:45.204Z,997.52
2022-12-29T05:14:45.532Z,997.60
2022-12-29T05:15:45.848Z,997.50
2022-12-29T05:16:46.111Z,997.58
2022-12-29T05:17:46.356Z,997.54
2022-12-29T05:18:46.715Z,997.58
2022-12-29T05:19:46.975Z,997.58
2022-12-29T05:20:47.290Z,997.64
2022-12-29T05:21:47.541Z,997.70
2022-12-29T05:22:47.820Z,997.64
2022-12-29T05:23:48.065Z,997.71
2022-12-29T05:24:48.359Z,997.84
2022-12-29T05:25:48.669Z,997.80
2022-12-29T05:26:48.958Z,997.79
2022-12-29T05:27:49.256Z,997.85
2022-12-29T05:28:49.534Z,997.83
2022-12-29T05:29:49.812Z,997.83
2022-12-29T05:30:50.055Z,997.84
2022-12-29T05:31:50.470Z,997.94
2022-12-29T05:32:50.623Z,997.90
2022-12-29T05:33:50.872Z,997.89
2022-12-29T05:34:51.157Z,997.88
2022-12-29T05:35:51.464Z,997.99
2022-12-29T05:36:51.780Z,997.98
2022-12-29T05:37:52.063Z,997.96
2022-12-29T05:38:52.351Z,998.02
2022-12-29T05:39:52.684Z,998.01
2022-12-29T05:40:52.948Z,997.98
2022-12-29T05:41:53.235Z,998.09
2022-12-29T05:42:53.508Z,998.00
2022-12-29T05:43:53.824Z,998.06
2022-12-29T05:44:54.099Z,998.09
2022-12-29T05:45:54.406Z,998.05
2022-12-29T05:46:54.762Z,998.13
2022-12-29T05:47:54.944Z,998.07
2022-12-29T05:48:55.219Z,998.03
2022-12-29T05:49:55.484Z,998.03
2022-12-29T05:50:55.813Z,998.01
2022-12-29T05:51:56.094Z,998.02
2022-12-29T05:52:56.346Z,998.01
2022-12-29T05:53:56.645Z,997.96
2022-12-29T05:54:56.915Z,997.98
2022-12-29T05:55:57.194Z,998.03
2022-12-29T05:56:57.469Z,997.95
2022-12-29T05:57:57.750Z,997.98
2022-12-29T05:58:58.014Z,997.97
2022-12-29T05:59:58.257Z,997.96
2022-12-29T06:00:58.567Z,997.93
2022-12-29T06:01:59.043Z,997.99
2022-12-29T06:02:59.356Z,998.08
2022-12-29T06:03:59.572Z,998.16
2022-12-29T06:04:59.731Z,998.09
2022-12-29T06:06:00.024Z,998.07
2022-12-29T06:07:00.348Z,997.91
2022-12-29T06:08:00.636Z,998.06
2022-12-29T06:09:00.934Z,997.92
2022-12-29T06:10:01.207Z,998.08
2022-12-29T06:11:01.468Z,998.00
2022-12-29T06:12:01.776Z,998.17
2022-12-29T06:13:02.029Z,998.15
2022-12-29T06:14:02.331Z,998.15
2022-12-29T06:15:02.580Z,998.19
2022-12-29T06:16:02.934Z,998.08
2022-12-29T06:17:03.190Z,998.14
2022-12-29T06:18:03.485Z,998.24
2022-12-29T06:19:03.790Z,998.23
2022-12-29T06:20:04.096Z,998.27
2022-12-29T06:21:04.352Z,998.29
2022-12-29T06:22:04.676Z,998.29
2022-12-29T06:23:04.937Z,998.25
2022-12-29T06:24:05.180Z,998.23
2022-12-29T06:25:05.651Z,998.28
2022-12-29T06:26:05.764Z,998.33
2022-12-29T06:27:06.082Z,998.23
2022-12-29T06:28:06.322Z,998.27
2022-12-29T06:29:06.643Z,998.27
2022-12-29T06:30:06.924Z,998.24
2022-12-29T06:31:07.245Z,998.08
2022-12-29T06:32:07.575Z,998.13
2022-12-29T06:33:07.880Z,998.09
2022-12-29T06:34:08.754Z,998.14
2022-12-29T06:35:08.390Z,998.10
2022-12-29T06:36:08.717Z,998.12
2022-12-29T06:37:08.962Z,998.06
2022-12-29T06:38:09.364Z,998.15
2022-12-29T06:39:09.714Z,998.21
2022-12-29T06:40:09.942Z,998.14
2022-12-29T06:41:10.085Z,998.22
2022-12-29T06:42:10.412Z,998.19
2022-12-29T06:43:10.673Z,998.24
2022-12-29T06:44:10.988Z,998.24
2022-12-29T06:45:11.287Z,998.22
2022-12-29T06:46:11.599Z,998.24
2022-12-29T06:47:11.856Z,998.35
2022-12-29T06:48:12.294Z,998.35
2022-12-29T06:49:12.361Z,998.40
2022-12-29T06:50:12.653Z,998.36
2022-12-29T06:51:12.974Z,998.44
2022-12-29T06:52:13.529Z,998.39
2022-12-29T06:53:13.553Z,998.54
2022-12-29T06:54:13.848Z,998.57
2022-12-29T06:55:14.214Z,998.56
2022-12-29T06:56:14.471Z,998.42
2022-12-29T06:57:14.771Z,998.61
2022-12-29T06:58:15.058Z,998.54
2022-12-29T06:59:15.320Z,998.36
2022-12-29T07:00:20.831Z,998.45
2022-12-29T07:01:16.910Z,998.50
2022-12-29T07:02:16.293Z,998.63
2022-12-29T07:03:16.428Z,998.52
2022-12-29T07:04:16.709Z,998.48
2022-12-29T07:05:16.971Z,998.43
2022-12-29T07:06:17.232Z,998.50
2022-12-29T07:07:17.569Z,998.41
2022-12-29T07:08:17.801Z,998.47
2022-12-29T07:09:18.090Z,998.39
2022-12-29T07:10:18.334Z,998.37
2022-12-29T07:11:18.627Z,998.40
2022-12-29T07:12:18.980Z,998.50
2022-12-29T07:13:19.249Z,998.55
2022-12-29T07:14:19.523Z,998.56
2022-12-29T07:15:19.791Z,998.55
2022-12-29T07:16:20.140Z,998.54
2022-12-29T07:17:20.421Z,998.58
2022-12-29T07:18:20.676Z,998.50
2022-12-29T07:19:21.003Z,998.49
2022-12-29T07:20:26.531Z,998.47
2022-12-29T07:21:22.530Z,998.51
2022-12-29T07:22:21.835Z,998.53
2022-12-29T07:23:22.365Z,998.57
2022-12-29T07:24:22.424Z,998.55
2022-12-29T07:25:22.712Z,998.53
2022-12-29T07:26:23.026Z,998.62
2022-12-29T07:27:23.350Z,998.62
2022-12-29T07:28:23.645Z,998.69
2022-12-29T07:29:23.903Z,998.75
2022-12-29T07:30:24.250Z,998.87
2022-12-29T07:31:24.552Z,998.88
2022-12-29T07:32:24.834Z,998.92
2022-12-29T07:33:25.122Z,998.91
2022-12-29T07:34:25.427Z,998.98
2022-12-29T07:35:25.735Z,998.95
2022-12-29T07:36:30.787Z,998.97
2022-12-29T07:37:27.304Z,999.01
2022-12-29T07:38:26.633Z,999.05
2022-12-29T07:39:26.934Z,999.02
2022-12-29T07:40:27.311Z,999.05
2022-12-29T07:41:27.615Z,999.07
2022-12-29T07:42:27.955Z,999.03
2022-12-29T07:43:28.221Z,999.03
2022-12-29T07:44:28.516Z,999.03
2022-12-29T07:45:28.842Z,999.04
2022-12-29T07:46:55.133Z,999.06
2022-12-29T07:47:30.422Z,999.10
2022-12-29T07:48:29.634Z,999.08
2022-12-29T07:49:29.975Z,999.09
2022-12-29T07:50:30.301Z,999.09
2022-12-29T07:51:30.651Z,999.08
2022-12-29T07:52:30.951Z,999.15
2022-12-29T07:53:31.270Z,999.19
2022-12-29T07:54:31.592Z,999.26
2022-12-29T07:55:31.909Z,999.21
2022-12-29T07:56:32.195Z,999.29
2022-12-29T07:57:32.572Z,999.23
2022-12-29T07:58:32.881Z,999.27
2022-12-29T07:59:33.185Z,999.26
2022-12-29T08:00:33.537Z,999.29
2022-12-29T08:01:33.983Z,999.31
2022-12-29T08:02:34.289Z,999.34
2022-12-29T08:03:34.490Z,999.36
2022-12-29T08:04:34.783Z,999.34
2022-12-29T08:05:35.056Z,999.31
2022-12-29T08:06:35.386Z,999.36
2022-12-29T08:07:35.901Z,999.35
2022-12-29T08:08:36.054Z,999.38
2022-12-29T08:09:36.393Z,999.37
2022-12-29T08:10:36.711Z,999.41
2022-12-29T08:11:37.025Z,999.37
2022-12-29T08:12:37.420Z,999.44
2022-12-29T08:13:37.584Z,999.39
2022-12-29T08:14:37.988Z,999.46
2022-12-29T08:15:38.285Z,999.54
2022-12-29T08:16:38.589Z,999.47
2022-12-29T08:17:38.879Z,999.46
2022-12-29T08:18:39.181Z,999.46
2022-12-29T08:19:39.551Z,999.51
2022-12-29T08:20:39.830Z,999.49
2022-12-29T08:21:40.173Z,999.50
2022-12-29T08:22:40.499Z,999.45
2022-12-29T08:23:40.843Z,999.49
2022-12-29T08:24:41.012Z,999.49
2022-12-29T08:25:41.332Z,999.49
2022-12-29T08:26:41.694Z,999.40
2022-12-29T08:27:41.997Z,999.38
2022-12-29T08:28:42.285Z,999.46
2022-12-29T08:29:42.597Z,999.42
2022-12-29T08:30:42.993Z,999.49
2022-12-29T08:31:43.280Z,999.52
2022-12-29T08:32:43.556Z,999.53
2022-12-29T08:33:43.834Z,999.49
2022-12-29T08:34:44.267Z,999.48
2022-12-29T08:35:44.438Z,999.54
2022-12-29T08:36:44.728Z,999.57
2022-12-29T08:37:45.082Z,999.57
2022-12-29T08:38:45.379Z,999.52
2022-12-29T08:39:45.746Z,999.59
2022-12-29T08:40:46.324Z,999.59
2022-12-29T08:41:46.356Z,999.56
2022-12-29T08:42:46.667Z,999.53
2022-12-29T08:43:46.960Z,999.60
2022-12-29T08:44:47.363Z,999.58
2022-12-29T08:45:47.654Z,999.53
2022-12-29T08:46:47.948Z,999.51
2022-12-29T08:47:48.301Z,999.54
2022-12-29T08:48:48.606Z,999.52
2022-12-29T08:49:48.889Z,999.53
2022-12-29T08:50:49.221Z,999.53
2022-12-29T08:51:49.566Z,999.55
2022-12-29T08:52:49.896Z,999.50
2022-12-29T08:53:50.217Z,999.55
2022-12-29T08:54:50.535Z,999.54
2022-12-29T08:55:50.848Z,999.57
2022-12-29T08:56:51.150Z,999.55
2022-12-29T08:57:51.488Z,999.54
2022-12-29T08:58:51.801Z,999.57
2022-12-29T08:59:59.120Z,999.66
2022-12-29T09:00:52.384Z,999.59
2022-12-29T09:01:52.887Z,999.69
2022-12-29T09:02:53.235Z,999.68
2022-12-29T09:04:54.620Z,999.82
2022-12-29T09:05:53.854Z,999.82
2022-12-29T09:06:54.120Z,999.81
2022-12-29T09:07:54.465Z,999.84
2022-12-29T09:08:54.767Z,999.86
2022-12-29T09:09:55.123Z,999.92
2022-12-29T09:10:55.408Z,999.92
2022-12-29T09:11:55.739Z,999.90
2022-12-29T09:12:56.082Z,999.95
2022-12-29T09:13:56.406Z,999.90
2022-12-29T09:14:56.715Z,999.95
2022-12-29T09:15:57.142Z,999.95
2022-12-29T09:16:57.328Z,999.93
2022-12-29T09:17:57.626Z,999.97
2022-12-29T09:18:57.913Z,999.97
2022-12-29T09:19:58.275Z,999.99
2022-12-29T09:20:58.583Z,1000.00
2022-12-29T09:21:58.876Z,1000.04
2022-12-29T09:22:59.204Z,1000.08
2022-12-29T09:23:59.488Z,1000.16
2022-12-29T09:24:59.808Z,1000.03
2022-12-29T09:26:00.138Z,1000.06
2022-12-29T09:27:00.366Z,1000.11
2022-12-29T09:28:00.682Z,1000.13
2022-12-29T09:29:00.889Z,1000.22
2022-12-29T09:30:01.236Z,1000.22
2022-12-29T09:31:01.617Z,1000.30
2022-12-29T09:32:01.902Z,1000.22
2022-12-29T09:33:02.288Z,1000.26
2022-12-29T09:34:02.633Z,1000.21
2022-12-29T09:35:02.923Z,1000.25
2022-12-29T09:36:03.200Z,1000.29
2022-12-29T09:37:03.481Z,1000.31
2022-12-29T09:38:03.738Z,1000.21
2022-12-29T09:39:04.043Z,1000.24
2022-12-29T09:40:04.306Z,1000.27
2022-12-29T09:41:04.618Z,1000.25
2022-12-29T09:42:04.968Z,1000.24
2022-12-29T09:43:05.274Z,1000.20
2022-12-29T09:44:05.508Z,1000.24
2022-12-29T09:45:05.742Z,1000.26
2022-12-29T09:46:06.040Z,1000.29
2022-12-29T09:47:06.459Z,1000.27
2022-12-29T09:48:09.718Z,1000.27
2022-12-29T09:49:06.968Z,1000.36
2022-12-29T09:50:07.322Z,1000.36
2022-12-29T09:51:07.638Z,1000.32
2022-12-29T09:52:07.984Z,1000.36
2022-12-29T09:53:08.332Z,1000.36
2022-12-29T09:54:08.650Z,1000.41
2022-12-29T09:55:13.899Z,1000.29
2022-12-29T09:56:10.319Z,1000.37
2022-12-29T09:57:09.560Z,1000.39
2022-12-29T09:58:09.867Z,1000.33
2022-12-29T09:59:10.108Z,1000.46
2022-12-29T10:00:10.457Z,1000.38
2022-12-29T10:01:10.808Z,1000.31
2022-12-29T10:04:29.948Z,1000.32
2022-12-29T10:05:30.267Z,1000.33
2022-12-29T10:06:30.576Z,1000.43
2022-12-29T10:07:31.210Z,1000.39
2022-12-29T10:08:31.243Z,1000.36
2022-12-29T10:09:31.580Z,1000.35
2022-12-29T10:10:31.894Z,1000.35
2022-12-29T10:11:32.248Z,1000.38
2022-12-29T10:12:32.578Z,1000.36
2022-12-29T10:13:32.873Z,1000.27
2022-12-29T10:14:33.214Z,1000.30
2022-12-29T10:15:33.604Z,1000.31
2022-12-29T10:16:34.017Z,1000.26
2022-12-29T10:17:34.257Z,1000.29
2022-12-29T10:18:34.425Z,1000.26
2022-12-29T10:19:34.773Z,1000.34
2022-12-29T10:20:35.167Z,1000.28
2022-12-29T10:21:35.361Z,1000.34
2022-12-29T10:22:35.696Z,1000.29
2022-12-29T10:23:36.077Z,1000.38
2022-12-29T10:24:36.369Z,1000.45
2022-12-29T10:25:36.719Z,1000.41
2022-12-29T10:26:36.960Z,1000.43
2022-12-29T10:27:37.263Z,1000.46
2022-12-29T10:28:37.500Z,1000.46
2022-12-29T10:29:37.852Z,1000.43
2022-12-29T10:30:38.158Z,1000.43
2022-12-29T10:31:38.507Z,1000.36
2022-12-29T10:32:38.831Z,1000.22
2022-12-29T10:33:39.170Z,1000.27
2022-12-29T10:34:39.523Z,1000.33
2022-12-29T10:35:39.894Z,1000.27
2022-12-29T10:36:40.092Z,1000.27
2022-12-29T10:37:40.392Z,1000.24
2022-12-29T10:38:40.766Z,1000.27
2022-12-29T10:39:41.117Z,1000.31
2022-12-29T10:40:41.440Z,1000.25
2022-12-29T10:41:41.819Z,1000.33
2022-12-29T10:45:02.917Z,1000.41
2022-12-29T10:46:04.937Z,1000.35
2022-12-29T10:47:03.637Z,1000.36
2022-12-29T10:48:03.824Z,1000.39
2022-12-29T10:49:04.117Z,1000.44
2022-12-29T10:50:04.483Z,1000.40
2022-12-29T10:51:04.724Z,1000.41
2022-12-29T10:52:05.058Z,1000.42
2022-12-29T10:53:05.403Z,1000.39
2022-12-29T10:54:05.717Z,1000.44
2022-12-29T10:55:06.043Z,1000.47
2022-12-29T10:56:06.448Z,1000.44
2022-12-29T10:57:06.695Z,1000.43
2022-12-29T10:58:13.856Z,1000.35
2022-12-29T10:59:07.115Z,1000.33
2022-12-29T11:00:07.474Z,1000.36
2022-12-29T11:01:07.809Z,1000.20
2022-12-29T11:02:08.113Z,1000.36
2022-12-29T11:03:08.381Z,1000.36
2022-12-29T11:04:08.557Z,1000.33
2022-12-29T11:05:08.882Z,1000.45
2022-12-29T11:06:09.197Z,1000.36
2022-12-29T11:07:15.614Z,1000.40
2022-12-29T11:08:10.844Z,1000.38
2022-12-29T11:09:10.076Z,1000.35
2022-12-29T11:10:10.446Z,1000.39
2022-12-29T11:11:10.747Z,1000.44
2022-12-29T11:12:11.045Z,1000.44
2022-12-29T11:13:11.457Z,1000.47
2022-12-29T11:14:11.742Z,1000.40
2022-12-29T11:15:12.068Z,1000.42
2022-12-29T11:16:12.544Z,1000.44
2022-12-29T11:17:12.731Z,1000.47
2022-12-29T11:18:13.003Z,1000.42
2022-12-29T11:19:13.165Z,1000.43
2022-12-29T11:20:13.565Z,1000.42
2022-12-29T11:21:13.902Z,1000.42
2022-12-29T11:22:14.126Z,1000.45
2022-12-29T11:23:14.409Z,1000.40
2022-12-29T11:24:14.779Z,1000.47
2022-12-29T11:25:15.135Z,1000.47
2022-12-29T11:26:15.451Z,1000.49
2022-12-29T11:27:15.776Z,1000.53
2022-12-29T11:28:16.067Z,1000.52
2022-12-29T11:29:16.411Z,1000.52
2022-12-29T11:30:16.778Z,1000.51
2022-12-29T11:31:17.133Z,1000.53
2022-12-29T11:32:20.270Z,1000.54
2022-12-29T11:33:18.614Z,1000.54
2022-12-29T11:34:17.857Z,1000.53
2022-12-29T11:35:18.168Z,1000.56
2022-12-29T11:36:18.414Z,1000.62
2022-12-29T11:37:18.745Z,1000.51
2022-12-29T11:38:19.058Z,1000.45
2022-12-29T11:39:19.392Z,1000.58
2022-12-29T11:40:19.722Z,1000.61
2022-12-29T11:41:20.019Z,1000.60
2022-12-29T11:42:20.329Z,1000.60
2022-12-29T11:43:20.594Z,1000.72
2022-12-29T11:44:20.920Z,1000.66
2022-12-29T11:45:21.274Z,1000.61
2022-12-29T11:46:21.632Z,1000.66
2022-12-29T11:47:21.824Z,1000.71
2022-12-29T11:48:22.168Z,1000.68
2022-12-29T11:49:22.458Z,1000.70
2022-12-29T11:50:22.720Z,1000.81
2022-12-29T11:51:25.259Z,1000.74
2022-12-29T11:52:23.366Z,1000.76
2022-12-29T11:53:23.659Z,1000.73
2022-12-29T11:54:24.017Z,1000.78
2022-12-29T11:55:24.280Z,1000.77
2022-12-29T11:56:24.579Z,1000.83
2022-12-29T11:57:24.911Z,1000.73
2022-12-29T11:58:25.208Z,1000.76
2022-12-29T11:59:25.567Z,1000.67
2022-12-29T12:00:25.922Z,1000.77
2022-12-29T12:02:53.529Z,1000.78
2022-12-29T12:03:04.595Z,1000.70
2022-12-29T12:04:01.473Z,1000.82
2022-12-29T12:05:00.678Z,1000.79
2022-12-29T12:05:59.287Z,1000.85
2022-12-29T12:06:59.546Z,1000.83
2022-12-29T12:07:59.866Z,1000.80
2022-12-29T12:09:00.106Z,1000.87
2022-12-29T12:10:07.101Z,1000.89
2022-12-29T12:11:01.717Z,1000.86
2022-12-29T12:12:00.995Z,1000.88
2022-12-29T12:13:01.308Z,1000.85
2022-12-29T12:14:01.640Z,1000.88
2022-12-29T12:15:01.976Z,1000.92
2022-12-29T12:16:02.223Z,1000.89
2022-12-29T12:17:02.459Z,1000.96
2022-12-29T12:18:02.698Z,1000.91
2022-12-29T12:19:02.916Z,1000.93
2022-12-29T12:20:03.221Z,1000.93
2022-12-29T12:21:03.558Z,1000.96
2022-12-29T12:22:03.951Z,1001.03
2022-12-29T12:23:04.277Z,1000.91
2022-12-29T12:24:04.559Z,1001.03
2022-12-29T12:25:04.852Z,1000.96
2022-12-29T12:26:05.210Z,1000.96
2022-12-29T12:27:05.539Z,1001.01
2022-12-29T12:28:05.872Z,1001.06
2022-12-29T12:29:06.183Z,1001.04
2022-12-29T12:30:06.487Z,1001.05
2022-12-29T12:31:06.923Z,1001.05
2022-12-29T12:32:07.163Z,1001.06
2022-12-29T12:33:07.465Z,1001.13
2022-12-29T12:34:07.745Z,1001.12
2022-12-29T12:35:08.017Z,1001.16